Time;durP1;ratioP1;P1;durP2;ratioP2;P2;SDS_P1;SDS_P2;PMS_P1;PMS_P2;Temp;Humidity;BMP_temperature;BMP_pressure;BME280_temperature;BME280_humidity;BME280_pressure;Samples;Min_cycle;Max_cycle;Signal;HPM_P1;HPM_P2
2023/06/12 00:01:02;;;;;;;;;;;20.30;37.50;;;16.18;57.50;95183.66;4947948;28;19910;-43
2023/06/12 00:03:29;;;;;;;;;;;20.20;37.70;;;16.02;58.47;95185.16;4952896;28;20432;-44
2023/06/12 00:06:00;;;;;;;;;;;20.10;37.80;;;15.87;59.39;95192.50;4953158;28;19910;-48
2023/06/12 00:08:41;;;;;;;;;;;19.90;37.90;;;15.76;58.75;95193.06;4957515;28;19910;-49
2023/06/12 00:11:12;;;;;;;;;;;19.80;38.10;;;15.66;59.90;95189.50;4944928;28;19914;-45
2023/06/12 00:13:44;;;;;;;;;;;19.70;38.20;;;15.50;60.58;95190.97;4947596;28;19910;-45
2023/06/12 00:16:10;;;;;;;;;;;19.60;38.40;;;15.38;62.44;95179.97;4965039;28;19957;-44
2023/06/12 00:18:40;;;;;;;;;;;19.40;38.60;;;15.25;62.56;95178.94;4955352;28;19974;-47
2023/06/12 00:21:08;;;;;;;;;;;19.30;38.70;;;15.17;63.53;95171.63;4955125;28;19914;-44
2023/06/12 00:23:35;;;;;;;;;;;19.20;38.90;;;15.00;64.55;95175.72;4957512;28;19993;-46
2023/06/12 00:26:03;;;;;;;;;;;19.10;39.10;;;14.86;64.83;95168.81;4948294;28;20512;-47
2023/06/12 00:28:29;;;;;;;;;;;19.00;39.20;;;14.84;64.28;95177.16;4956453;28;20364;-44
2023/06/12 00:30:55;;;;;;;;;;;18.90;39.40;;;14.73;64.79;95173.91;4952755;28;20312;-46
2023/06/12 00:33:21;;;;;;;;;;;18.80;39.50;;;14.64;64.58;95178.38;4948717;28;19914;-48
2023/06/12 00:35:47;;;;;;;;;;;18.70;39.70;;;14.53;64.95;95180.47;4956686;28;19922;-46
2023/06/12 00:38:15;;;;;;;;;;;18.60;39.80;;;14.43;65.99;95180.66;4953417;28;20392;-47
2023/06/12 00:40:41;;;;;;;;;;;18.50;40.00;;;14.29;67.77;95191.38;4955213;28;19997;-46
2023/06/12 00:43:08;;;;;;;;;;;18.40;40.20;;;14.15;68.88;95181.72;4951430;28;20021;-43
2023/06/12 00:45:35;;;;;;;;;;;18.30;40.30;;;14.07;69.33;95175.97;4945102;28;19910;-44
2023/06/12 00:48:03;;;;;;;;;;;18.20;40.50;;;13.99;70.31;95182.00;4956103;28;19914;-44
2023/06/12 00:50:29;;;;;;;;;;;18.10;40.60;;;13.98;70.70;95180.44;4944712;28;20001;-44
2023/06/12 00:52:58;;;;;;;;;;;18.10;40.80;;;13.92;70.13;95176.25;4956650;28;19910;-48
2023/06/12 00:55:25;;;;;;;;;;;18.00;41.00;;;13.77;71.40;95181.88;4953731;28;19922;-44
2023/06/12 00:57:51;;;;;;;;;;;17.90;41.10;;;13.72;71.55;95189.97;4955983;28;19916;-44
2023/06/12 01:00:19;;;;;;;;;;;17.80;41.30;;;13.64;72.17;95186.88;4956086;28;19961;-44
2023/06/12 01:02:58;;;;;;;;;;;17.70;41.40;;;13.56;72.30;95179.53;4950444;28;19981;-44
2023/06/12 01:05:37;;;;;;;;;;;17.60;41.60;;;13.41;73.75;95182.44;4955352;28;19910;-44
2023/06/12 01:08:16;;;;;;;;;;;17.50;41.80;;;13.19;75.36;95177.66;4958359;23;19930;-49
2023/06/12 01:10:56;;;;;;;;;;;17.40;42.50;;;13.20;74.88;95184.63;4965578;28;19914;-55
2023/06/12 01:13:22;;;;;;;;;;;17.30;42.10;;;13.18;74.65;95184.09;4932358;29;20301;-54
2023/06/12 01:15:49;;;;;;;;;;;17.30;42.30;;;13.01;76.63;95184.63;4946025;28;19914;-51
2023/06/12 01:18:16;;;;;;;;;;;17.10;42.40;;;12.99;76.39;95180.66;4947004;28;19914;-53
2023/06/12 01:20:43;;;;;;;;;;;17.10;43.20;;;12.93;77.28;95178.03;4945431;28;20281;-49
2023/06/12 01:23:39;;;;;;;;;;;17.00;42.70;;;12.86;77.85;95179.50;4955056;28;19914;-51
2023/06/12 01:26:45;;;;;;;;;;;16.90;42.90;;;12.76;78.17;95180.41;4942251;28;19918;-52
2023/06/12 01:29:39;;;;;;;;;;;16.90;43.10;;;12.66;78.39;95177.88;4942900;28;20341;-48
2023/06/12 01:32:16;;;;;;;;;;;16.80;43.30;;;12.55;79.78;95187.09;4929099;29;19911;-55
2023/06/12 01:35:07;;;;;;;;;;;16.70;43.50;;;12.44;80.52;95173.88;4950869;28;19910;-48
2023/06/12 01:37:44;;;;;;;;;;;16.60;43.60;;;12.42;80.37;95173.34;4948422;28;19974;-54
2023/06/12 01:40:12;;;;;;;;;;;16.60;43.90;;;12.37;81.27;95175.28;4950195;28;19925;-50
2023/06/12 01:42:40;;;;;;;;;;;16.50;43.90;;;12.33;82.04;95174.28;4950169;28;20305;-50
2023/06/12 01:45:07;;;;;;;;;;;16.50;44.10;;;12.27;83.16;95168.19;4946216;28;20360;-53
2023/06/12 01:47:32;;;;;;;;;;;16.40;44.20;;;12.20;84.43;95179.22;4939070;28;19968;-49
2023/06/12 01:49:59;;;;;;;;;;;16.40;44.40;;;12.15;85.51;95173.94;4934938;29;20297;-49
2023/06/12 01:52:26;;;;;;;;;;;16.30;44.50;;;12.23;84.62;95173.31;4936216;28;19956;-53
2023/06/12 01:54:52;;;;;;;;;;;16.30;44.70;;;12.26;84.04;95183.44;4935447;29;20501;-48
2023/06/12 01:57:19;;;;;;;;;;;16.20;44.90;;;12.25;84.65;95173.84;4936013;29;19925;-51
2023/06/12 01:59:48;;;;;;;;;;;16.20;45.10;;;12.30;84.07;95172.97;4935857;29;19934;-48
2023/06/12 02:02:16;;;;;;;;;;;16.20;45.20;;;12.40;82.77;95164.81;4935281;28;19911;-50
2023/06/12 02:04:42;;;;;;;;;;;16.20;45.30;;;12.56;80.71;95167.31;4936071;29;19910;-49
2023/06/12 02:07:09;;;;;;;;;;;16.30;45.50;;;12.62;80.72;95163.50;4935693;28;19914;-49
2023/06/12 02:09:34;;;;;;;;;;;16.30;45.60;;;12.68;79.80;95170.38;4945447;28;20001;-48
2023/06/12 02:12:01;;;;;;;;;;;16.40;45.70;;;12.69;79.42;95174.63;4948824;28;20448;-51
2023/06/12 02:14:27;;;;;;;;;;;16.40;45.60;;;12.65;79.24;95174.41;4953430;28;19910;-51
2023/06/12 02:16:54;;;;;;;;;;;16.50;45.60;;;12.58;79.98;95176.63;4955010;28;19914;-50
2023/06/12 02:19:25;;;;;;;;;;;16.50;45.60;;;12.54;80.04;95178.31;4936747;28;19918;-52
2023/06/12 02:21:56;;;;;;;;;;;16.50;45.60;;;12.49;81.70;95178.34;4955120;28;19956;-51
2023/06/12 02:24:27;;;;;;;;;;;16.50;45.60;;;12.47;81.62;95181.31;4954811;28;19910;-49
2023/06/12 02:26:52;;;;;;;;;;;16.50;45.70;;;12.46;81.29;95176.25;4936585;28;20552;-51
2023/06/12 02:29:18;;;;;;;;;;;16.50;45.80;;;12.45;81.51;95174.66;4950610;28;19918;-50
2023/06/12 02:31:44;;;;;;;;;;;16.40;45.80;;;12.43;81.57;95182.97;4944157;28;19918;-51
2023/06/12 02:34:10;;;;;;;;;;;16.40;45.90;;;12.41;81.18;95187.81;4950504;28;19930;-51
2023/06/12 02:36:39;;;;;;;;;;;16.40;46.00;;;12.40;80.90;95182.72;4952421;28;19921;-54
2023/06/12 02:39:08;;;;;;;;;;;16.40;46.10;;;12.43;81.43;95182.16;4962344;28;19914;-50
2023/06/12 02:41:34;;;;;;;;;;;16.40;46.10;;;12.41;81.03;95184.31;4954317;28;19956;-51
2023/06/12 02:43:59;;;;;;;;;;;16.40;46.20;;;12.37;81.07;95180.63;4942853;28;20286;-51
2023/06/12 02:46:25;;;;;;;;;;;16.40;46.20;;;12.30;81.36;95183.66;4944982;28;19917;-50
2023/06/12 02:48:51;;;;;;;;;;;16.40;46.20;;;12.26;81.57;95188.78;4950872;28;20009;-50
2023/06/12 02:51:16;;;;;;;;;;;16.30;46.20;;;12.19;81.32;95185.66;4944773;28;19913;-50
2023/06/12 02:53:42;;;;;;;;;;;16.30;46.30;;;12.12;82.53;95182.50;4953878;28;19956;-51
2023/06/12 02:56:08;;;;;;;;;;;16.20;46.40;;;12.08;83.06;95178.81;4947159;28;19919;-52
2023/06/12 02:58:34;;;;;;;;;;;16.20;46.40;;;12.03;83.89;95177.00;4950192;28;19917;-48
2023/06/12 03:01:00;;;;;;;;;;;16.20;47.20;;;12.01;84.09;95176.50;4949306;28;20020;-50
2023/06/12 03:03:29;;;;;;;;;;;16.10;46.60;;;11.98;84.19;95186.94;4950793;28;19913;-48
2023/06/12 03:05:54;;;;;;;;;;;16.10;46.70;;;11.91;84.28;95189.94;4954415;28;19956;-49
2023/06/12 03:08:20;;;;;;;;;;;16.10;47.50;;;11.87;84.04;95188.09;4941644;28;20317;-49
2023/06/12 03:10:46;;;;;;;;;;;16.00;46.90;;;11.84;85.02;95188.63;4944638;28;20272;-48
2023/06/12 03:13:14;;;;;;;;;;;16.00;47.00;;;11.78;85.53;95187.88;4939803;28;20416;-49
2023/06/12 03:15:40;;;;;;;;;;;15.90;47.00;;;11.76;85.96;95188.19;4953750;28;19961;-48
2023/06/12 03:18:06;;;;;;;;;;;15.90;47.20;;;11.74;85.37;95193.00;4947209;28;19942;-54
2023/06/12 03:20:33;;;;;;;;;;;15.90;47.30;;;11.72;86.15;95192.50;4945899;28;19910;-50
2023/06/12 03:22:59;;;;;;;;;;;15.80;47.30;;;11.71;86.02;95193.56;4952593;28;20400;-51
2023/06/12 03:25:26;;;;;;;;;;;15.80;47.50;;;11.67;86.13;95195.19;4946038;28;19942;-53
2023/06/12 03:27:51;;;;;;;;;;;15.80;47.50;;;11.70;86.60;95199.19;4950641;28;20311;-53
2023/06/12 03:30:17;;;;;;;;;;;15.80;47.60;;;11.69;87.11;95195.72;4953298;28;20005;-53
2023/06/12 03:32:44;;;;;;;;;;;15.80;47.70;;;11.75;86.71;95196.44;4951597;28;20381;-54
2023/06/12 03:35:10;;;;;;;;;;;15.80;47.80;;;11.81;86.41;95196.16;4953450;28;20396;-51
2023/06/12 03:37:35;;;;;;;;;;;15.80;47.80;;;11.85;85.82;95201.75;4947741;28;19917;-50
2023/06/12 03:40:03;;;;;;;;;;;15.90;48.00;;;11.82;85.47;95203.06;4952953;28;20008;-54
2023/06/12 03:42:29;;;;;;;;;;;15.90;47.90;;;11.79;86.59;95197.50;4953428;28;19961;-49
2023/06/12 03:44:55;;;;;;;;;;;15.80;47.90;;;11.73;87.92;95195.94;4944365;28;19909;-51
2023/06/12 03:47:21;;;;;;;;;;;15.80;48.00;;;11.75;87.36;95210.63;4953054;28;20273;-49
2023/06/12 03:49:46;;;;;;;;;;;15.80;48.10;;;11.76;86.72;95209.53;4942070;28;20499;-52
2023/06/12 03:52:12;;;;;;;;;;;15.80;48.10;;;11.79;86.67;95211.63;4950929;28;19918;-50
2023/06/12 03:54:39;;;;;;;;;;;15.90;48.30;;;11.81;86.95;95201.47;4950607;28;20369;-49
2023/06/12 03:57:07;;;;;;;;;;;15.90;48.40;;;11.86;86.96;95202.53;4959388;28;29015;-53
2023/06/12 03:59:33;;;;;;;;;;;15.90;48.40;;;11.87;86.89;95204.13;4952693;28;19997;-50
2023/06/12 04:01:59;;;;;;;;;;;15.90;48.50;;;11.91;85.53;95207.81;4939624;29;20004;-48
2023/06/12 04:04:26;;;;;;;;;;;16.00;48.50;;;12.01;84.52;95215.75;4953551;28;20349;-51
2023/06/12 04:06:53;;;;;;;;;;;16.00;48.60;;;12.11;84.27;95220.19;4949592;28;19910;-55
2023/06/12 04:09:18;;;;;;;;;;;16.10;48.70;;;12.18;84.06;95223.31;4944565;28;19918;-52
2023/06/12 04:11:46;;;;;;;;;;;16.20;48.60;;;12.22;83.63;95229.66;4940127;29;19914;-51
2023/06/12 04:14:12;;;;;;;;;;;16.20;48.60;;;12.37;83.58;95228.72;4949473;28;20016;-51
2023/06/12 04:16:38;;;;;;;;;;;16.30;48.50;;;12.61;83.82;95236.72;4952175;29;20007;-55
2023/06/12 04:19:05;;;;;;;;;;;16.40;48.50;;;12.89;83.39;95238.50;4940886;28;19958;-52
2023/06/12 04:21:35;;;;;;;;;;;16.50;48.50;;;13.13;81.98;95241.16;4950926;28;19910;-48
2023/06/12 04:24:03;;;;;;;;;;;16.60;48.40;;;13.36;80.70;95236.81;4953071;28;19910;-52
2023/06/12 04:26:31;;;;;;;;;;;16.80;48.40;;;13.55;80.46;95244.03;4949226;28;19918;-49
2023/06/12 04:28:57;;;;;;;;;;;16.90;48.40;;;13.67;78.11;95239.03;4952713;28;19916;-52
2023/06/12 04:31:27;;;;;;;;;;;17.10;48.40;;;13.86;76.20;95237.13;4951031;28;20380;-51
2023/06/12 04:33:54;;;;;;;;;;;17.30;48.30;;;14.10;74.56;95236.16;4953076;28;19917;-49
2023/06/12 04:36:21;;;;;;;;;;;17.50;48.20;;;14.35;74.01;95245.63;4951505;29;20004;-53
2023/06/12 04:38:50;;;;;;;;;;;17.70;48.10;;;14.58;73.73;95250.06;4962630;28;19914;-56
2023/06/12 04:41:27;;;;;;;;;;;17.90;48.00;;;14.84;72.49;95246.06;4953145;28;19914;-56
2023/06/12 04:44:00;;;;;;;;;;;18.10;47.80;;;15.08;71.40;95235.91;4944172;28;19918;-50
2023/06/12 04:46:28;;;;;;;;;;;18.40;47.60;;;15.30;70.71;95240.53;4953110;28;19971;-55
2023/06/12 04:48:53;;;;;;;;;;;18.60;47.50;;;15.45;69.58;95226.78;4949874;28;19925;-51
2023/06/12 04:51:19;;;;;;;;;;;18.80;47.30;;;15.65;68.37;95240.81;4943421;29;20273;-52
2023/06/12 04:53:47;;;;;;;;;;;19.00;47.10;;;15.78;68.16;95233.84;4952579;28;19914;-52
2023/06/12 04:56:20;;;;;;;;;;;19.20;47.00;;;15.85;67.11;95234.97;4946198;28;20056;-53
2023/06/12 04:58:46;;;;;;;;;;;19.40;46.80;;;16.02;66.99;95242.38;4951477;28;19910;-50
2023/06/12 05:01:14;;;;;;;;;;;19.60;46.50;;;16.19;65.96;95245.13;4950971;28;20061;-54
2023/06/12 05:03:41;;;;;;;;;;;19.80;46.30;;;16.27;65.08;95245.50;4954420;28;19921;-54
2023/06/12 05:06:07;;;;;;;;;;;20.00;46.10;;;16.45;65.07;95247.16;4956267;28;19912;-53
2023/06/12 05:08:34;;;;;;;;;;;20.20;46.00;;;16.58;64.50;95251.66;4944133;28;19925;-53
2023/06/12 05:11:00;;;;;;;;;;;20.40;45.70;;;16.77;64.34;95254.13;4945392;28;19914;-54
2023/06/12 05:13:26;;;;;;;;;;;20.60;45.60;;;16.98;63.73;95253.53;4951555;28;19917;-55
2023/06/12 05:15:52;;;;;;;;;;;20.80;45.50;;;17.19;64.07;95259.16;4956228;28;19914;-52
2023/06/12 05:18:17;;;;;;;;;;;21.00;45.40;;;17.47;62.70;95254.28;4948819;28;19910;-52
2023/06/12 05:20:43;;;;;;;;;;;21.30;45.30;;;17.53;60.61;95253.00;4949736;28;19910;-57
2023/06/12 05:23:09;;;;;;;;;;;21.50;45.00;;;17.72;60.33;95253.47;4956233;28;19958;-50
2023/06/12 05:25:34;;;;;;;;;;;21.70;44.80;;;17.88;59.61;95245.72;4954375;28;19910;-53
2023/06/12 05:28:00;;;;;;;;;;;21.90;44.60;;;18.05;60.10;95261.09;4955300;28;19918;-55
2023/06/12 05:30:26;;;;;;;;;;;22.10;44.40;;;18.25;59.10;95241.53;4955513;28;19917;-50
2023/06/12 05:32:52;;;;;;;;;;;22.30;44.10;;;18.52;59.15;95250.34;4941911;28;19953;-48
2023/06/12 05:35:18;;;;;;;;;;;22.60;44.00;;;18.69;58.00;95246.78;4970548;28;19914;-50
2023/06/12 05:37:44;;;;;;;;;;;22.80;43.80;;;18.82;57.61;95247.72;4950714;28;20331;-50
2023/06/12 05:40:10;;;;;;;;;;;23.00;43.60;;;18.93;56.58;95244.31;4954014;28;19914;-51
2023/06/12 05:42:36;;;;;;;;;;;23.30;43.30;;;18.89;56.42;95239.88;4955247;28;19910;-53
2023/06/12 05:45:04;;;;;;;;;;;23.50;43.00;;;18.94;56.30;95245.13;4946949;28;19917;-48
2023/06/12 05:47:30;;;;;;;;;;;23.60;42.70;;;19.08;56.89;95256.44;4955329;28;20276;-52
2023/06/12 05:49:56;;;;;;;;;;;23.70;42.40;;;19.20;56.00;95253.06;4942888;28;19918;-50
2023/06/12 05:52:21;;;;;;;;;;;23.90;42.30;;;19.30;56.15;95251.88;4940874;28;19917;-50
2023/06/12 05:54:47;;;;;;;;;;;24.00;42.10;;;19.32;55.72;95253.13;4944174;28;19914;-51
2023/06/12 05:57:14;;;;;;;;;;;24.20;42.00;;;19.41;55.69;95264.69;4935874;29;19965;-49
2023/06/12 05:59:40;;;;;;;;;;;24.30;41.70;;;19.33;55.83;95259.31;4935770;29;20001;-49
2023/06/12 06:02:07;;;;;;;;;;;24.40;41.50;;;19.34;55.54;95255.53;4940722;28;20437;-48
2023/06/12 06:04:33;;;;;;;;;;;24.50;41.30;;;19.41;54.93;95255.78;4946613;28;19913;-54
2023/06/12 06:06:59;;;;;;;;;;;24.70;41.20;;;19.47;54.92;95251.00;4937516;28;20021;-54
2023/06/12 06:09:26;;;;;;;;;;;24.80;41.00;;;19.52;55.02;95253.47;4935475;28;19918;-51
2023/06/12 06:11:52;;;;;;;;;;;24.80;40.80;;;19.58;54.93;95252.16;4936205;29;19910;-55
2023/06/12 06:14:18;;;;;;;;;;;24.90;40.70;;;19.75;54.27;95267.50;4935116;29;20403;-52
2023/06/12 06:16:45;;;;;;;;;;;25.10;40.60;;;19.90;54.18;95257.97;4931386;28;19914;-51
2023/06/12 06:19:10;;;;;;;;;;;25.20;40.40;;;20.00;53.34;95261.06;4943665;28;19996;-52
2023/06/12 06:21:36;;;;;;;;;;;25.30;40.30;;;20.11;53.66;95262.22;4937686;28;20053;-54
2023/06/12 06:24:03;;;;;;;;;;;25.40;40.10;;;20.16;53.40;95263.94;4935626;29;19973;-54
2023/06/12 06:26:28;;;;;;;;;;;25.50;40.00;;;20.39;53.04;95267.03;4939047;28;20288;-54
2023/06/12 06:28:54;;;;;;;;;;;25.70;39.90;;;20.61;52.82;95263.16;4943599;28;19910;-53
2023/06/12 06:31:20;;;;;;;;;;;25.90;39.80;;;20.90;52.05;95264.91;4934701;28;19993;-50
2023/06/12 06:33:46;;;;;;;;;;;26.10;39.70;;;20.91;51.27;95268.38;4935382;29;20233;-55
2023/06/12 06:36:11;;;;;;;;;;;26.20;39.50;;;20.99;51.53;95272.88;4935240;28;19967;-57
2023/06/12 06:38:37;;;;;;;;;;;26.40;39.30;;;21.02;51.21;95274.91;4937862;28;20000;-56
2023/06/12 06:41:03;;;;;;;;;;;26.60;39.20;;;21.19;51.13;95269.28;4962770;28;19912;-51
2023/06/12 06:43:29;;;;;;;;;;;26.70;38.90;;;21.32;50.92;95266.56;4949092;28;20399;-54
2023/06/12 06:45:55;;;;;;;;;;;26.90;38.80;;;21.48;50.24;95278.31;4947929;28;20417;-55
2023/06/12 06:48:20;;;;;;;;;;;27.10;38.70;;;21.69;50.37;95276.25;4934979;28;19921;-51
2023/06/12 06:50:46;;;;;;;;;;;27.20;38.50;;;21.76;50.10;95274.88;4938392;28;19992;-51
2023/06/12 06:53:12;;;;;;;;;;;27.40;38.40;;;21.92;49.09;95278.44;4943811;28;19953;-54
2023/06/12 06:55:38;;;;;;;;;;;27.60;38.20;;;22.04;48.96;95278.38;4947133;28;19918;-53
2023/06/12 06:58:04;;;;;;;;;;;27.70;38.00;;;22.20;47.90;95286.59;4954155;28;20434;-52
2023/06/12 07:00:30;;;;;;;;;;;27.80;37.80;;;22.39;47.57;95286.72;4954394;28;19914;-50
2023/06/12 07:02:56;;;;;;;;;;;28.00;37.60;;;22.51;47.48;95272.31;4945258;28;19910;-50
2023/06/12 07:05:22;;;;;;;;;;;28.20;37.40;;;22.59;47.41;95275.97;4954397;28;19949;-52
2023/06/12 07:07:49;;;;;;;;;;;28.30;37.30;;;22.65;47.25;95280.03;4942445;28;19953;-54
2023/06/12 07:10:15;;;;;;;;;;;28.50;37.10;;;22.76;47.50;95272.94;4946326;28;19945;-50
2023/06/12 07:12:42;;;;;;;;;;;28.60;36.90;;;22.60;47.10;95280.28;4945787;28;19910;-52
2023/06/12 07:15:08;;;;;;;;;;;28.70;36.70;;;22.61;46.99;95276.44;4951654;28;19989;-53
2023/06/12 07:17:34;;;;;;;;;;;28.80;37.20;;;22.68;46.78;95279.31;4942845;28;19914;-51
2023/06/12 07:20:01;;;;;;;;;;;28.90;36.40;;;22.94;46.72;95280.75;4944472;28;19917;-52
2023/06/12 07:22:28;;;;;;;;;;;29.00;36.30;;;23.05;46.38;95279.09;4945254;28;19996;-56
2023/06/12 07:24:54;;;;;;;;;;;29.10;36.10;;;23.17;46.10;95276.28;4952737;28;19935;-52
2023/06/12 07:27:20;;;;;;;;;;;29.20;36.00;;;23.44;46.00;95280.03;4953343;28;19921;-54
2023/06/12 07:29:45;;;;;;;;;;;29.40;36.60;;;23.73;45.08;95278.72;4953224;28;20304;-52
2023/06/12 07:32:11;;;;;;;;;;;29.50;35.80;;;23.99;45.09;95278.09;4941860;28;20289;-50
2023/06/12 07:34:37;;;;;;;;;;;29.70;35.70;;;23.74;44.77;95276.78;4935162;28;19910;-56
2023/06/12 07:37:04;;;;;;;;;;;29.90;35.50;;;23.70;44.09;95278.66;4942515;28;19929;-54
2023/06/12 07:39:30;;;;;;;;;;;30.00;35.30;;;23.64;45.84;95274.63;4926482;28;20677;-51
2023/06/12 07:41:57;;;;;;;;;;;30.10;35.10;;;23.51;45.51;95274.72;4942097;28;19910;-50
2023/06/12 07:44:22;;;;;;;;;;;30.20;34.90;;;23.52;45.45;95276.31;4943096;28;19917;-50
2023/06/12 07:46:48;;;;;;;;;;;30.30;34.80;;;23.53;46.11;95268.94;4953883;28;19910;-50
2023/06/12 07:49:16;;;;;;;;;;;30.30;34.60;;;23.20;46.39;95262.00;4947286;28;19917;-55
2023/06/12 07:51:42;;;;;;;;;;;30.30;34.40;;;23.62;46.08;95274.97;4934323;29;19910;-52
2023/06/12 07:54:08;;;;;;;;;;;30.30;34.30;;;23.86;45.07;95273.16;4953032;28;19910;-52
2023/06/12 07:56:35;;;;;;;;;;;30.40;34.30;;;23.91;45.06;95267.44;4949654;28;19914;-51
2023/06/12 07:59:09;;;;;;;;;;;30.50;34.30;;;24.18;44.93;95262.91;4945825;28;20027;-53
2023/06/12 08:01:36;;;;;;;;;;;30.60;34.20;;;24.10;44.79;95261.19;4927796;28;19910;-55
2023/06/12 08:04:09;;;;;;;;;;;30.70;34.10;;;24.49;44.00;95266.63;4953265;28;19917;-52
2023/06/12 08:06:37;;;;;;;;;;;30.80;34.00;;;24.58;43.69;95259.03;4952123;28;19988;-57
2023/06/12 08:09:03;;;;;;;;;;;30.90;33.90;;;24.56;43.54;95261.31;4940590;28;20053;-56
2023/06/12 08:11:29;;;;;;;;;;;31.00;33.60;;;24.67;42.89;95262.31;4940245;29;19925;-54
2023/06/12 08:13:55;;;;;;;;;;;31.10;33.50;;;24.87;42.58;95263.78;4942407;29;19911;-54
2023/06/12 08:16:23;;;;;;;;;;;31.20;33.40;;;24.99;42.04;95262.03;4946900;29;19921;-54
2023/06/12 08:18:49;;;;;;;;;;;31.30;33.80;;;25.08;41.83;95268.81;4933049;28;19910;-48
2023/06/12 08:21:15;;;;;;;;;;;31.40;33.10;;;25.01;41.93;95259.72;4940763;29;19961;-52
2023/06/12 08:23:41;;;;;;;;;;;31.50;32.80;;;25.27;40.89;95259.00;4954791;29;20001;-52
2023/06/12 08:26:08;;;;;;;;;;;31.60;32.80;;;25.30;41.78;95261.78;4939005;28;19914;-51
2023/06/12 08:28:36;;;;;;;;;;;31.70;32.60;;;25.56;40.63;95258.25;4952842;28;19996;-50
2023/06/12 08:31:01;;;;;;;;;;;31.80;32.50;;;25.61;40.40;95255.22;4951281;28;19918;-48
2023/06/12 08:33:29;;;;;;;;;;;31.90;32.30;;;26.19;39.25;95262.19;4946948;28;19933;-51
2023/06/12 08:35:58;;;;;;;;;;;32.10;32.30;;;26.24;38.89;95259.13;4950483;28;19920;-51
2023/06/12 08:38:24;;;;;;;;;;;32.30;32.20;;;25.36;40.97;95260.31;4927460;28;20045;-49
2023/06/12 08:40:54;;;;;;;;;;;32.40;32.00;;;25.51;40.67;95255.06;4949607;28;20419;-48
2023/06/12 08:43:21;;;;;;;;;;;32.50;31.80;;;25.54;40.07;95252.41;4950724;28;19917;-49
2023/06/12 08:45:50;;;;;;;;;;;32.60;31.50;;;25.93;40.32;95260.31;4953918;28;19925;-51
2023/06/12 08:48:19;;;;;;;;;;;32.60;31.40;;;26.10;39.53;95250.78;4955137;28;19940;-50
2023/06/12 08:50:47;;;;;;;;;;;32.70;31.40;;;25.96;39.89;95253.34;4938869;28;19917;-49
2023/06/12 08:53:15;;;;;;;;;;;32.80;31.40;;;25.91;40.60;95253.66;4948056;28;19933;-50
2023/06/12 08:55:41;;;;;;;;;;;32.90;31.30;;;25.68;40.99;95251.78;4942631;28;19914;-48
2023/06/12 08:58:07;;;;;;;;;;;33.00;31.20;;;26.03;40.53;95250.69;4955199;28;20304;-53
2023/06/12 09:00:33;;;;;;;;;;;33.00;31.10;;;26.39;40.21;95243.72;4951603;28;19911;-49
2023/06/12 09:03:00;;;;;;;;;;;33.20;31.10;;;26.68;39.33;95249.47;4946962;28;19921;-51
2023/06/12 09:05:34;;;;;;;;;;;33.30;31.00;;;26.57;39.76;95252.09;4951755;28;19932;-49
2023/06/12 09:08:02;;;;;;;;;;;33.40;30.90;;;26.82;38.19;95248.81;4937867;28;19973;-49
2023/06/12 09:10:32;;;;;;;;;;;33.50;30.80;;;26.50;38.86;95254.75;4949607;28;20289;-52
2023/06/12 09:12:59;;;;;;;;;;;33.60;30.60;;;25.79;39.75;95260.91;4948382;28;19910;-51
2023/06/12 09:15:26;;;;;;;;;;;33.60;30.40;;;26.36;39.48;95249.91;4948869;28;19911;-53
2023/06/12 09:17:55;;;;;;;;;;;33.60;30.20;;;26.61;38.95;95257.59;4943952;28;19918;-51
2023/06/12 09:20:32;;;;;;;;;;;33.60;30.20;;;26.51;39.28;95251.66;4946299;28;19915;-49
2023/06/12 09:23:04;;;;;;;;;;;33.70;30.10;;;26.82;38.63;95246.84;4952606;28;19933;-49
2023/06/12 09:25:37;;;;;;;;;;;33.80;30.10;;;27.17;38.89;95240.94;4949359;28;19911;-50
2023/06/12 09:28:04;;;;;;;;;;;33.80;30.00;;;27.42;37.95;95249.31;4953861;28;19917;-50
2023/06/12 09:30:31;;;;;;;;;;;33.90;30.00;;;27.41;37.40;95252.41;4955806;28;20392;-50
2023/06/12 09:33:00;;;;;;;;;;;34.00;29.90;;;27.53;37.26;95257.56;4943006;28;19917;-53
2023/06/12 09:35:26;;;;;;;;;;;34.10;30.30;;;28.19;36.80;95240.31;4955855;28;19918;-51
2023/06/12 09:37:52;;;;;;;;;;;34.20;29.80;;;28.60;35.83;95246.31;4941652;28;19924;-51
2023/06/12 09:40:18;;;;;;;;;;;34.50;29.90;;;27.53;37.50;95243.09;4952068;28;19920;-53
2023/06/12 09:42:45;;;;;;;;;;;34.60;29.80;;;27.20;37.96;95231.16;4964877;28;20407;-50
2023/06/12 09:45:16;;;;;;;;;;;34.70;29.60;;;27.55;36.34;95233.38;4941176;28;20377;-52
2023/06/12 09:47:47;;;;;;;;;;;34.70;29.50;;;27.57;35.94;95235.69;4930122;28;19956;-49
2023/06/12 09:50:15;;;;;;;;;;;34.80;29.30;;;27.81;35.41;95243.28;4941932;28;19957;-53
2023/06/12 09:52:44;;;;;;;;;;;34.80;29.20;;;28.19;34.83;95230.13;4955613;28;20008;-51
2023/06/12 09:55:15;;;;;;;;;;;34.90;29.20;;;28.26;34.28;95227.41;4952383;28;19918;-51
2023/06/12 09:57:50;;;;;;;;;;;34.90;29.50;;;27.69;35.82;95238.13;4947095;28;19957;-52
2023/06/12 10:00:17;;;;;;;;;;;35.00;28.90;;;27.78;34.37;95229.59;4966470;28;19916;-50
2023/06/12 10:03:06;;;;;;;;;;;35.00;28.80;;;26.94;36.07;95226.66;4947774;28;19910;-54
2023/06/12 10:05:43;;;;;;;;;;;35.00;28.60;;;27.04;36.11;95236.88;4955278;28;19910;-52
2023/06/12 10:08:09;;;;;;;;;;;34.90;28.50;;;27.49;34.89;95225.91;4943540;28;19973;-54
2023/06/12 10:10:36;;;;;;;;;;;34.90;28.40;;;27.90;34.55;95226.53;4947033;28;19910;-54
2023/06/12 10:13:03;;;;;;;;;;;35.00;28.30;;;27.98;34.16;95224.59;4948194;28;19910;-50
2023/06/12 10:15:31;;;;;;;;;;;35.00;28.30;;;28.29;33.75;95221.16;4955343;28;19925;-54
2023/06/12 10:17:58;;;;;;;;;;;35.10;28.30;;;28.55;33.34;95211.88;4948083;28;19910;-55
2023/06/12 10:20:26;;;;;;;;;;;35.30;28.40;;;28.00;33.94;95212.09;4940824;28;19918;-52
2023/06/12 10:22:55;;;;;;;;;;;35.40;28.20;;;28.00;35.39;95212.09;4937452;28;20049;-52
2023/06/12 10:25:22;;;;;;;;;;;35.50;28.20;;;28.57;33.50;95214.22;4944266;28;20000;-55
2023/06/12 10:27:49;;;;;;;;;;;35.60;28.10;;;28.35;33.25;95214.13;4949180;28;19910;-55
2023/06/12 10:30:18;;;;;;;;;;;35.70;27.90;;;28.14;32.83;95206.66;4935796;29;19921;-56
2023/06/12 10:32:45;;;;;;;;;;;35.70;28.20;;;28.30;33.65;95209.06;4951261;23;19925;-50
2023/06/12 10:35:12;;;;;;;;;;;35.80;27.60;;;27.48;34.23;95203.22;4949589;28;20333;-48
2023/06/12 10:37:47;;;;;;;;;;;35.70;27.50;;;27.21;35.00;95189.78;4935334;28;20017;-50
2023/06/12 10:40:24;;;;;;;;;;;35.70;27.40;;;27.13;34.64;95201.81;4939738;28;19909;-47
2023/06/12 10:43:05;;;;;;;;;;;35.60;27.40;;;27.57;34.30;95186.47;4941075;28;19910;-50
2023/06/12 10:45:33;;;;;;;;;;;35.60;27.40;;;27.99;32.79;95198.81;4934719;29;19917;-48
2023/06/12 10:48:05;;;;;;;;;;;35.60;27.20;;;27.78;32.52;95197.53;4935667;29;19910;-49
2023/06/12 10:50:44;;;;;;;;;;;35.60;27.10;;;27.11;34.53;95186.97;4934676;29;19964;-47
2023/06/12 10:53:22;;;;;;;;;;;35.60;26.80;;;27.81;32.89;95185.03;4934832;28;20341;-47
2023/06/12 10:55:48;;;;;;;;;;;35.60;27.30;;;28.09;33.12;95193.34;4933928;29;19914;-49
2023/06/12 10:58:19;;;;;;;;;;;35.70;26.90;;;28.66;32.65;95191.91;4934366;29;19917;-48
2023/06/12 11:00:49;;;;;;;;;;;35.80;26.90;;;28.81;31.59;95188.78;4935244;28;20385;-50
2023/06/12 11:03:26;;;;;;;;;;;36.00;26.90;;;28.79;31.40;95174.69;4923852;29;20373;-49
2023/06/12 11:06:05;;;;;;;;;;;36.10;26.70;;;27.60;34.17;95174.75;4935513;28;20281;-48
2023/06/12 11:08:31;;;;;;;;;;;36.10;26.40;;;27.22;33.05;95172.22;4934828;29;20333;-52
2023/06/12 11:10:57;;;;;;;;;;;36.10;26.30;;;27.20;33.83;95177.31;4935768;29;19965;-49
2023/06/12 11:13:26;;;;;;;;;;;36.00;26.10;;;28.18;32.16;95178.53;4934551;29;20373;-49
2023/06/12 11:15:53;;;;;;;;;;;36.00;26.20;;;28.98;30.06;95172.72;4935515;28;20374;-48
2023/06/12 11:18:19;;;;;;;;;;;36.10;26.20;;;28.59;31.48;95173.50;4935590;29;19910;-51
2023/06/12 11:20:56;;;;;;;;;;;36.20;26.20;;;29.09;30.48;95168.03;4934294;29;19911;-47